createdAt,value
2018-01-01T00:01:16.767Z,98546.15
2018-01-01T00:03:45.991Z,98554.22
2018-01-01T00:06:15.266Z,98542.57
2018-01-01T00:08:44.470Z,98555.33
2018-01-01T00:11:13.739Z,98552.84
2018-01-01T00:13:42.936Z,98551.66
2018-01-01T00:16:12.147Z,98544.18
2018-01-01T00:18:41.387Z,98562.50
2018-01-01T00:21:10.589Z,98563.70
2018-01-01T00:23:39.792Z,98572.05
2018-01-01T00:26:09.066Z,98582.27
2018-01-01T00:28:38.299Z,98577.81
2018-01-01T00:31:07.474Z,98576.53
2018-01-01T00:33:36.718Z,98591.35
2018-01-01T00:36:06.721Z,98605.11
2018-01-01T00:38:35.960Z,98618.36
2018-01-01T00:41:05.257Z,98617.39
2018-01-01T00:43:34.455Z,98614.72
2018-01-01T00:46:03.694Z,98611.77
2018-01-01T00:48:32.882Z,98598.59
2018-01-01T00:51:02.112Z,98618.30
2018-01-01T00:53:32.094Z,98622.28
2018-01-01T00:56:01.432Z,98604.61
2018-01-01T00:58:31.382Z,98611.02
2018-01-01T01:01:00.717Z,98592.03
2018-01-01T01:03:29.940Z,98580.28
2018-01-01T01:05:59.928Z,98567.45
2018-01-01T01:08:29.138Z,98559.34
2018-01-01T01:10:58.337Z,98566.71
2018-01-01T01:13:28.331Z,98575.79
2018-01-01T01:15:57.529Z,98577.14
2018-01-01T01:18:26.735Z,98577.71
2018-01-01T01:20:56.734Z,98585.47
2018-01-01T01:23:25.902Z,98582.12
2018-01-01T01:25:55.215Z,98597.04
2018-01-01T01:28:24.406Z,98600.42
2018-01-01T01:30:53.610Z,98604.19
2018-01-01T01:33:23.119Z,98593.56
2018-01-01T01:35:52.313Z,98598.76
2018-01-01T01:38:21.518Z,98596.20
2018-01-01T01:40:50.754Z,98586.61
2018-01-01T01:43:19.951Z,98600.45
2018-01-01T01:45:49.149Z,98604.43
2018-01-01T01:48:18.360Z,98607.52
2018-01-01T01:50:48.296Z,98618.00
2018-01-01T01:53:17.505Z,98618.95
2018-01-01T01:55:46.739Z,98606.78
2018-01-01T01:58:15.954Z,98610.95
2018-01-01T02:00:45.199Z,98619.24
2018-01-01T02:03:14.393Z,98605.47
2018-01-01T02:05:43.580Z,98612.94
2018-01-01T02:08:12.955Z,98614.64
2018-01-01T02:10:42.922Z,98605.73
2018-01-01T02:13:12.103Z,98623.39
2018-01-01T02:15:41.434Z,98628.76
2018-01-01T02:18:10.611Z,98616.02
2018-01-01T02:20:39.798Z,98626.88
2018-01-01T02:23:09.115Z,98623.00
2018-01-01T02:25:38.301Z,98626.41
2018-01-01T02:28:07.549Z,98618.75
2018-01-01T02:30:37.522Z,98629.91
2018-01-01T02:33:06.734Z,98632.88
2018-01-01T02:35:35.933Z,98634.48
2018-01-01T02:38:05.958Z,98631.81
2018-01-01T02:40:35.134Z,98622.68
2018-01-01T02:43:04.319Z,98622.80
2018-01-01T02:45:33.492Z,98619.00
2018-01-01T02:48:02.706Z,98607.47
2018-01-01T02:50:31.871Z,98617.54
2018-01-01T02:53:01.824Z,98618.02
2018-01-01T02:55:31.018Z,98620.55
2018-01-01T02:58:00.237Z,98628.52
2018-01-01T03:00:29.414Z,98619.34
2018-01-01T03:02:58.629Z,98627.57
2018-01-01T03:05:28.077Z,98611.98
2018-01-01T03:07:58.046Z,98622.92
2018-01-01T03:10:27.311Z,98621.95
2018-01-01T03:12:56.870Z,98622.17
2018-01-01T03:15:26.063Z,98629.87
2018-01-01T03:17:55.240Z,98620.05
2018-01-01T03:20:24.478Z,98623.97
2018-01-01T03:22:54.441Z,98612.19
2018-01-01T03:25:23.709Z,98611.47
2018-01-01T03:27:53.663Z,98612.41
2018-01-01T03:30:22.895Z,98611.23
2018-01-01T03:32:52.084Z,98612.75
2018-01-01T03:35:21.379Z,98616.60
2018-01-01T03:37:50.572Z,98618.66
2018-01-01T03:40:19.763Z,98633.86
2018-01-01T03:42:48.950Z,98633.65
2018-01-01T03:45:18.166Z,98624.00
2018-01-01T03:47:47.491Z,98628.02
2018-01-01T03:50:16.666Z,98607.62
2018-01-01T03:52:45.852Z,98617.80
2018-01-01T03:55:15.046Z,98612.35
2018-01-01T03:57:44.281Z,98603.48
2018-01-01T04:00:14.247Z,98627.84
2018-01-01T04:02:44.257Z,98627.56
2018-01-01T04:05:13.450Z,98639.17
2018-01-01T04:07:42.661Z,98632.12
2018-01-01T04:10:11.836Z,98630.09
2018-01-01T04:12:41.036Z,98632.41
2018-01-01T04:15:10.218Z,98641.59
2018-01-01T04:17:39.411Z,98643.58
2018-01-01T04:20:08.605Z,98649.31
2018-01-01T04:22:38.578Z,98654.73
2018-01-01T04:25:07.787Z,98654.13
2018-01-01T04:27:36.973Z,98666.30
2018-01-01T04:30:06.162Z,98676.55
2018-01-01T04:32:35.339Z,98675.59
2018-01-01T04:35:04.529Z,98677.73
2018-01-01T04:37:33.749Z,98679.94
2018-01-01T04:40:02.975Z,98686.14
2018-01-01T04:42:32.149Z,98686.88
2018-01-01T04:45:01.402Z,98699.50
2018-01-01T04:47:30.619Z,98706.09
2018-01-01T04:49:59.881Z,98702.03
2018-01-01T04:52:29.844Z,98716.95
2018-01-01T04:54:59.018Z,98709.62
2018-01-01T04:57:28.211Z,98710.41
2018-01-01T04:59:57.401Z,98703.42
2018-01-01T05:02:26.594Z,98720.02
2018-01-01T05:04:56.534Z,98726.82
2018-01-01T05:07:25.743Z,98719.19
2018-01-01T05:09:54.938Z,98732.94
2018-01-01T05:12:24.130Z,98735.48
2018-01-01T05:14:54.141Z,98726.19
2018-01-01T05:17:23.346Z,98722.83
2018-01-01T05:19:52.538Z,98748.67
2018-01-01T05:22:21.723Z,98752.73
2018-01-01T05:24:50.914Z,98753.04
2018-01-01T05:27:20.107Z,98753.78
2018-01-01T05:29:49.450Z,98768.84
2018-01-01T05:32:18.641Z,98771.47
2018-01-01T05:34:47.903Z,98765.27
2018-01-01T05:37:17.891Z,98764.48
2018-01-01T05:39:47.074Z,98768.94
2018-01-01T05:42:16.273Z,98774.22
2018-01-01T05:44:45.446Z,98782.21
2018-01-01T05:47:14.651Z,98790.50
2018-01-01T05:49:43.903Z,98788.45
2018-01-01T05:52:13.087Z,98809.80
2018-01-01T05:54:43.051Z,98780.73
2018-01-01T05:57:12.235Z,98800.62
2018-01-01T05:59:41.427Z,98800.94
2018-01-01T06:02:10.602Z,98806.03
2018-01-01T06:04:39.794Z,98804.46
2018-01-01T06:07:09.755Z,98810.53
2018-01-01T06:09:39.807Z,98807.59
2018-01-01T06:12:09.878Z,98809.91
2018-01-01T06:14:39.077Z,98815.27
2018-01-01T06:17:08.278Z,98822.55
2018-01-01T06:19:37.582Z,98830.31
2018-01-01T06:22:06.787Z,98825.13
2018-01-01T06:24:36.011Z,98829.52
2018-01-01T06:27:05.218Z,98826.47
2018-01-01T06:29:35.164Z,98842.73
2018-01-01T06:32:04.358Z,98842.84
2018-01-01T06:34:33.612Z,98837.78
2018-01-01T06:37:02.843Z,98852.07
2018-01-01T06:39:32.035Z,98846.78
2018-01-01T06:42:01.184Z,98859.16
2018-01-01T06:44:30.389Z,98865.24
2018-01-01T06:46:59.587Z,98863.33
2018-01-01T06:49:28.782Z,98874.45
2018-01-01T06:51:57.966Z,98866.41
2018-01-01T06:54:27.149Z,98871.89
2018-01-01T06:56:56.329Z,98870.66
2018-01-01T06:59:25.518Z,98878.09
2018-01-01T07:01:54.702Z,98878.97
2018-01-01T07:04:24.686Z,98891.29
2018-01-01T07:06:53.903Z,98898.49
2018-01-01T07:09:23.998Z,98904.80
2018-01-01T07:11:53.207Z,98899.51
2018-01-01T07:14:22.421Z,98900.02
2018-01-01T07:16:51.606Z,98911.78
2018-01-01T07:19:20.793Z,98916.00
2018-01-01T07:21:50.040Z,98918.76
2018-01-01T07:24:19.302Z,98911.30
2018-01-01T07:26:48.510Z,98921.03
2018-01-01T07:29:18.464Z,98918.95
2018-01-01T07:31:47.707Z,98920.30
2018-01-01T07:34:16.894Z,98930.55
2018-01-01T07:36:46.059Z,98932.86
2018-01-01T07:39:15.279Z,98952.88
2018-01-01T07:41:44.445Z,98950.34
2018-01-01T07:44:13.708Z,98944.20
2018-01-01T07:46:43.650Z,98954.28
2018-01-01T07:49:12.862Z,98944.88
2018-01-01T07:51:42.058Z,98955.74
2018-01-01T07:54:11.233Z,98955.69
2018-01-01T07:56:40.426Z,98952.00
2018-01-01T07:59:10.374Z,98955.03
2018-01-01T08:01:39.565Z,98960.11
2018-01-01T08:04:08.781Z,98951.55
2018-01-01T08:06:37.963Z,98964.52
2018-01-01T08:09:07.160Z,98951.58
2018-01-01T08:11:36.400Z,98973.92
2018-01-01T08:14:05.558Z,98965.81
2018-01-01T08:16:34.746Z,98967.11
2018-01-01T08:19:04.031Z,98969.53
2018-01-01T08:21:33.209Z,98968.75
2018-01-01T08:24:03.187Z,98974.66
2018-01-01T08:26:32.366Z,98963.06
2018-01-01T08:29:01.545Z,98981.47
2018-01-01T08:31:30.824Z,98981.58
2018-01-01T08:34:00.007Z,98971.56
2018-01-01T08:36:30.013Z,98972.66
2018-01-01T08:38:59.213Z,98971.20
2018-01-01T08:41:29.152Z,98973.36
2018-01-01T08:43:58.364Z,98975.81
2018-01-01T08:46:27.571Z,98978.13
2018-01-01T08:48:56.787Z,98969.79
2018-01-01T08:51:26.027Z,98982.80
2018-01-01T08:53:56.099Z,98983.86
2018-01-01T08:56:25.317Z,98973.92
2018-01-01T08:58:54.478Z,98975.38
2018-01-01T09:01:23.704Z,98974.94
2018-01-01T09:03:52.915Z,98970.88
2018-01-01T09:06:22.122Z,98978.23
2018-01-01T09:08:51.287Z,98972.14
2018-01-01T09:11:20.488Z,98975.46
2018-01-01T09:13:49.680Z,98972.70
2018-01-01T09:16:18.930Z,98983.57
2018-01-01T09:18:48.883Z,98980.78
2018-01-01T09:21:19.033Z,98975.99
2018-01-01T09:23:48.211Z,98979.87
2018-01-01T09:26:17.397Z,98987.71
2018-01-01T09:28:46.587Z,98993.17
2018-01-01T09:31:15.765Z,98991.23
2018-01-01T09:33:44.967Z,98997.59
2018-01-01T09:36:14.131Z,99001.17
2018-01-01T09:38:44.098Z,98998.05
2018-01-01T09:41:13.258Z,98986.88
2018-01-01T09:43:42.482Z,98989.59
2018-01-01T09:46:11.686Z,98992.46
2018-01-01T09:48:40.861Z,98979.84
2018-01-01T09:51:10.811Z,98987.03
2018-01-01T09:53:40.007Z,98979.43
2018-01-01T09:56:09.197Z,98975.82
2018-01-01T09:58:38.397Z,98977.06
2018-01-01T10:01:08.386Z,98971.66
2018-01-01T10:03:37.608Z,98971.09
2018-01-01T10:06:06.804Z,98968.44
2018-01-01T10:08:35.978Z,98969.63
2018-01-01T10:11:05.166Z,98963.31
2018-01-01T10:13:34.356Z,98968.10
2018-01-01T10:16:04.324Z,98962.44
2018-01-01T10:18:33.507Z,98965.47
2018-01-01T10:21:02.729Z,98963.69
2018-01-01T10:23:31.907Z,98961.56
2018-01-01T10:26:01.131Z,98955.51
2018-01-01T10:28:30.293Z,98950.61
2018-01-01T10:30:59.503Z,98953.07
2018-01-01T10:33:29.445Z,98939.94
2018-01-01T10:35:59.422Z,98944.34
2018-01-01T10:38:29.324Z,98947.96
2018-01-01T10:40:58.522Z,98949.19
2018-01-01T10:43:27.733Z,98957.37
2018-01-01T10:45:56.904Z,98958.72
2018-01-01T10:48:26.087Z,98954.72
2018-01-01T10:50:55.423Z,98955.67
2018-01-01T10:53:24.622Z,98957.66
2018-01-01T10:55:53.804Z,98945.70
2018-01-01T10:58:22.986Z,98947.95
2018-01-01T11:00:52.157Z,98929.81
2018-01-01T11:03:22.126Z,98921.98
2018-01-01T11:05:51.370Z,98922.21
2018-01-01T11:08:21.354Z,98925.75
2018-01-01T11:10:50.570Z,98918.94
2018-01-01T11:13:19.746Z,98913.23
2018-01-01T11:15:48.966Z,98907.16
2018-01-01T11:18:18.171Z,98895.55
2018-01-01T11:20:48.161Z,98894.43
2018-01-01T11:23:17.338Z,98890.38
2018-01-01T11:25:46.537Z,98876.45
2018-01-01T11:28:15.723Z,98876.55
2018-01-01T11:30:44.937Z,98872.87
2018-01-01T11:33:14.113Z,98869.17
2018-01-01T11:35:43.322Z,98865.37
2018-01-01T11:38:12.562Z,98858.27
2018-01-01T11:40:41.783Z,98849.86
2018-01-01T11:43:11.822Z,98849.25
2018-01-01T11:45:41.010Z,98845.97
2018-01-01T11:48:10.215Z,98836.95
2018-01-01T11:50:39.499Z,98840.03
2018-01-01T11:53:09.548Z,98842.97
2018-01-01T11:55:38.752Z,98832.59
2018-01-01T11:58:07.939Z,98822.23
2018-01-01T12:00:37.132Z,98823.30
2018-01-01T12:03:06.335Z,98821.45
2018-01-01T12:05:35.555Z,98816.12
2018-01-01T12:08:04.791Z,98812.46
2018-01-01T12:10:34.770Z,98803.51
2018-01-01T12:13:04.085Z,98796.90
2018-01-01T12:15:35.133Z,98785.36
2018-01-01T12:18:05.938Z,98787.86
2018-01-01T12:20:35.130Z,98779.34
2018-01-01T12:23:04.334Z,98777.44
2018-01-01T12:25:33.527Z,98773.42
2018-01-01T12:28:02.751Z,98767.35
2018-01-01T12:30:31.943Z,98756.82
2018-01-01T12:33:01.122Z,98746.89
2018-01-01T12:35:30.332Z,98754.44
2018-01-01T12:37:59.490Z,98743.98
2018-01-01T12:40:28.718Z,98735.80
2018-01-01T12:42:57.926Z,98740.47
2018-01-01T12:45:27.147Z,98744.48
2018-01-01T12:47:56.309Z,98742.17
2018-01-01T12:50:25.516Z,98728.67
2018-01-01T12:52:54.701Z,98732.17
2018-01-01T12:55:23.988Z,98720.55
2018-01-01T12:57:55.023Z,98724.50
2018-01-01T13:00:24.235Z,98714.84
2018-01-01T13:02:53.453Z,98714.02
2018-01-01T13:05:22.673Z,98714.94
2018-01-01T13:07:52.650Z,98711.31
2018-01-01T13:10:21.855Z,98711.52
2018-01-01T13:12:51.046Z,98712.79
2018-01-01T13:15:20.238Z,98703.91
2018-01-01T13:17:49.447Z,98707.48
2018-01-01T13:20:18.650Z,98698.12
2018-01-01T13:22:47.854Z,98694.62
2018-01-01T13:25:17.042Z,98685.97
2018-01-01T13:27:46.248Z,98670.73
2018-01-01T13:30:15.447Z,98660.22
2018-01-01T13:32:44.678Z,98652.53
2018-01-01T13:35:13.875Z,98655.95
2018-01-01T13:37:43.061Z,98644.52
2018-01-01T13:40:12.295Z,98639.31
2018-01-01T13:42:41.503Z,98640.77
2018-01-01T13:45:10.686Z,98631.97
2018-01-01T13:47:39.898Z,98632.90
2018-01-01T13:50:09.136Z,98631.30
2018-01-01T13:52:39.080Z,98622.28
2018-01-01T13:55:08.307Z,98619.89
2018-01-01T13:57:37.490Z,98609.88
2018-01-01T14:00:06.697Z,98614.97
2018-01-01T14:02:35.886Z,98606.78
2018-01-01T14:05:05.139Z,98608.88
2018-01-01T14:07:35.089Z,98603.07
2018-01-01T14:10:04.379Z,98596.69
2018-01-01T14:12:33.563Z,98593.75
2018-01-01T14:15:02.808Z,98589.36
2018-01-01T14:17:32.079Z,98584.84
2018-01-01T14:20:01.282Z,98581.92
2018-01-01T14:22:30.521Z,98576.43
2018-01-01T14:25:00.487Z,98573.44
2018-01-01T14:27:29.678Z,98570.95
2018-01-01T14:29:58.863Z,98558.38
2018-01-01T14:32:28.062Z,98559.38
2018-01-01T14:34:57.252Z,98557.67
2018-01-01T14:37:27.250Z,98547.52
2018-01-01T14:39:57.202Z,98544.27
2018-01-01T14:42:26.412Z,98537.44
2018-01-01T14:44:56.434Z,98528.35
2018-01-01T14:47:25.644Z,98528.25
2018-01-01T14:49:54.848Z,98524.65
2018-01-01T14:52:24.140Z,98521.09
2018-01-01T14:54:53.312Z,98515.08
2018-01-01T14:57:22.529Z,98516.17
2018-01-01T14:59:51.746Z,98512.05
2018-01-01T15:02:20.943Z,98513.51
2018-01-01T15:04:50.279Z,98510.62
2018-01-01T15:07:20.241Z,98507.20
2018-01-01T15:09:49.544Z,98506.85
2018-01-01T15:12:18.777Z,98501.51
2018-01-01T15:14:48.012Z,98497.66
2018-01-01T15:17:17.189Z,98489.05
2018-01-01T15:19:47.169Z,98483.28
2018-01-01T15:22:16.352Z,98481.08
2018-01-01T15:24:45.568Z,98483.61
2018-01-01T15:27:14.758Z,98477.52
2018-01-01T15:29:43.974Z,98477.84
2018-01-01T15:32:13.976Z,98469.51
2018-01-01T15:34:43.189Z,98465.02
2018-01-01T15:37:13.174Z,98460.97
2018-01-01T15:39:42.355Z,98441.67
2018-01-01T15:42:11.558Z,98451.92
2018-01-01T15:44:40.756Z,98451.78
2018-01-01T15:47:09.963Z,98452.67
2018-01-01T15:49:39.214Z,98447.41
2018-01-01T15:52:08.420Z,98446.41
2018-01-01T15:54:37.745Z,98447.09
2018-01-01T15:57:06.938Z,98440.44
2018-01-01T15:59:36.195Z,98440.93
2018-01-01T16:02:06.258Z,98442.14
2018-01-01T16:04:35.531Z,98439.05
2018-01-01T16:07:04.758Z,98433.42
2018-01-01T16:09:33.955Z,98426.34
2018-01-01T16:12:03.162Z,98423.03
2018-01-01T16:14:32.480Z,98420.23
2018-01-01T16:17:01.664Z,98417.89
2018-01-01T16:19:30.967Z,98409.63
2018-01-01T16:22:00.303Z,98410.45
2018-01-01T16:24:30.360Z,98407.70
2018-01-01T16:26:59.685Z,98400.95
2018-01-01T16:29:29.005Z,98405.11
2018-01-01T16:31:59.078Z,98401.37
2018-01-01T16:34:28.308Z,98389.89
2018-01-01T16:36:57.625Z,98389.46
2018-01-01T16:39:26.894Z,98382.52
2018-01-01T16:41:56.130Z,98393.73
2018-01-01T16:44:26.147Z,98396.83
2018-01-01T16:46:56.121Z,98391.34
2018-01-01T16:49:25.376Z,98389.60
2018-01-01T16:51:54.609Z,98390.06
2018-01-01T16:54:23.813Z,98393.48
2018-01-01T16:56:53.034Z,98390.24
2018-01-01T16:59:22.329Z,98382.88
2018-01-01T17:01:51.786Z,98375.45
2018-01-01T17:04:21.048Z,98370.04
2018-01-01T17:06:50.304Z,98361.33
2018-01-01T17:09:19.538Z,98356.67
2018-01-01T17:11:48.848Z,98344.61
2018-01-01T17:14:18.924Z,98344.00
2018-01-01T17:16:48.273Z,98343.86
2018-01-01T17:19:18.338Z,98337.10
2018-01-01T17:21:47.766Z,98341.90
2018-01-01T17:24:16.969Z,98339.06
2018-01-01T17:26:46.506Z,98336.03
2018-01-01T17:29:15.750Z,98334.80
2018-01-01T17:31:44.953Z,98328.32
2018-01-01T17:34:14.319Z,98327.26
2018-01-01T17:36:43.536Z,98323.16
2018-01-01T17:39:12.775Z,98326.47
2018-01-01T17:41:41.967Z,98323.42
2018-01-01T17:44:11.165Z,98324.30
2018-01-01T17:46:41.490Z,98312.54
2018-01-01T17:49:10.971Z,98314.42
2018-01-01T17:51:40.389Z,98309.52
2018-01-01T17:54:10.236Z,98299.50
2018-01-01T17:56:39.802Z,98306.25
2018-01-01T17:59:09.286Z,98300.03
2018-01-01T18:01:39.303Z,98307.09
2018-01-01T18:04:09.751Z,98294.19
2018-01-01T18:06:39.149Z,98294.77
2018-01-01T18:09:08.547Z,98292.14
2018-01-01T18:11:38.185Z,98295.30
2018-01-01T18:14:09.243Z,98290.22
2018-01-01T18:16:38.767Z,98292.53
2018-01-01T18:19:08.621Z,98297.33
2018-01-01T18:21:39.050Z,98292.48
2018-01-01T18:24:09.041Z,98291.99
2018-01-01T18:26:38.988Z,98282.33
2018-01-01T18:29:08.471Z,98286.34
2018-01-01T18:31:38.075Z,98282.11
2018-01-01T18:34:08.123Z,98278.27
2018-01-01T18:36:37.644Z,98279.80
2018-01-01T18:39:07.075Z,98276.14
2018-01-01T18:41:37.269Z,98287.52
2018-01-01T18:44:07.217Z,98283.50
2018-01-01T18:46:36.919Z,98284.70
2018-01-01T18:49:06.314Z,98288.00
2018-01-01T18:51:35.891Z,98284.59
2018-01-01T18:54:05.295Z,98283.03
2018-01-01T18:56:35.666Z,98282.64
2018-01-01T18:59:05.787Z,98274.19
2018-01-01T19:01:35.454Z,98284.38
2018-01-01T19:04:05.066Z,98281.08
2018-01-01T19:06:34.478Z,98283.00
2018-01-01T19:09:03.947Z,98278.77
2018-01-01T19:11:33.419Z,98286.27
2018-01-01T19:14:03.040Z,98279.55
2018-01-01T19:16:32.806Z,98275.89
2018-01-01T19:19:03.033Z,98288.58
2018-01-01T19:21:32.635Z,98285.45
2018-01-01T19:24:03.598Z,98277.92
2018-01-01T19:26:33.828Z,98278.48
2018-01-01T19:29:04.350Z,98279.41
2018-01-01T19:31:33.978Z,98282.15
2018-01-01T19:34:03.671Z,98278.23
2018-01-01T19:36:34.205Z,98279.77
2018-01-01T19:39:04.415Z,98280.22
2018-01-01T19:41:34.047Z,98283.45
2018-01-01T19:44:03.691Z,98282.92
2018-01-01T19:46:33.359Z,98289.64
2018-01-01T19:49:03.079Z,98286.93
2018-01-01T19:51:32.794Z,98282.30
2018-01-01T19:54:02.400Z,98292.03
2018-01-01T19:56:33.391Z,98284.72
2018-01-01T19:59:03.049Z,98287.31
2018-01-01T20:01:33.993Z,98296.27
2018-01-01T20:04:08.139Z,98294.92
2018-01-01T20:06:38.391Z,98298.72
2018-01-01T20:09:08.791Z,98305.16
2018-01-01T20:11:39.173Z,98307.36
2018-01-01T20:14:08.731Z,98301.60
2018-01-01T20:16:38.677Z,98304.09
2018-01-01T20:19:08.039Z,98305.16
2018-01-01T20:21:37.502Z,98304.28
2018-01-01T20:24:08.123Z,98308.13
2018-01-01T20:26:38.433Z,98313.41
2018-01-01T20:29:08.422Z,98315.55
2018-01-01T20:31:38.357Z,98317.75
2018-01-01T20:34:07.944Z,98326.17
2018-01-01T20:36:37.647Z,98330.22
2018-01-01T20:39:07.768Z,98329.78
2018-01-01T20:41:37.239Z,98336.45
2018-01-01T20:44:06.583Z,98344.47
2018-01-01T20:46:36.352Z,98344.43
2018-01-01T20:49:05.900Z,98347.91
2018-01-01T20:51:35.229Z,98358.05
2018-01-01T20:54:05.692Z,98357.16
2018-01-01T20:56:35.717Z,98365.77
2018-01-01T20:59:05.798Z,98365.16
2018-01-01T21:01:35.176Z,98379.09
2018-01-01T21:04:05.506Z,98378.88
2018-01-01T21:06:35.490Z,98382.45
2018-01-01T21:09:04.884Z,98383.80
2018-01-01T21:11:34.404Z,98389.94
2018-01-01T21:14:04.193Z,98392.86
2018-01-01T21:16:34.088Z,98399.39
2018-01-01T21:19:04.326Z,98409.61
2018-01-01T21:21:34.108Z,98416.22
2018-01-01T21:24:03.494Z,98422.32
2018-01-01T21:26:33.322Z,98423.41
2018-01-01T21:29:03.050Z,98425.70
2018-01-01T21:31:32.947Z,98431.89
2018-01-01T21:34:02.982Z,98435.67
2018-01-01T21:36:34.188Z,98436.72
2018-01-01T21:39:03.463Z,98447.12
2018-01-01T21:41:34.101Z,98454.37
2018-01-01T21:44:04.094Z,98449.25
